Time;durP1;ratioP1;P1;durP2;ratioP2;P2;SDS_P1;SDS_P2;PMS_P1;PMS_P2;Temp;Humidity;BMP_temperature;BMP_pressure;BME280_temperature;BME280_humidity;BME280_pressure;Samples;Min_cycle;Max_cycle;Signal;HPM_P1;HPM_P2
2021/08/04 00:01:27;;;;;;;10.70;6.10;;;;;;;19.79;64.33;100632.45;1695405;83;21904;-69
2021/08/04 00:03:53;;;;;;;9.90;6.47;;;;;;;19.84;64.24;100636.76;1693471;83;21267;-68
2021/08/04 00:06:19;;;;;;;8.98;6.30;;;;;;;19.89;64.20;100636.23;1691150;83;21624;-68
2021/08/04 00:08:47;;;;;;;9.95;6.33;;;;;;;19.92;64.18;100635.03;1713263;82;21086;-68
2021/08/04 00:11:13;;;;;;;11.30;6.70;;;;;;;19.91;64.18;100632.05;1713162;82;21543;-68
2021/08/04 00:13:41;;;;;;;10.55;6.10;;;;;;;19.88;64.21;100634.56;1732072;81;21019;-68
2021/08/04 00:16:09;;;;;;;10.23;5.70;;;;;;;19.85;64.11;100638.43;1734704;80;21083;-69
2021/08/04 00:18:36;;;;;;;9.30;6.65;;;;;;;19.83;64.24;100643.09;1736276;81;21115;-69
2021/08/04 00:21:03;;;;;;;8.55;6.42;;;;;;;19.79;64.14;100644.98;1726875;82;21039;-69
2021/08/04 00:23:29;;;;;;;10.15;7.12;;;;;;;19.72;63.96;100648.83;1736618;82;21038;-69
2021/08/04 00:25:56;;;;;;;9.55;6.80;;;;;;;19.63;64.00;100645.35;1702410;82;21116;-67
2021/08/04 00:28:23;;;;;;;9.58;6.50;;;;;;;19.60;64.10;100646.21;1769308;80;21058;-68
2021/08/04 00:30:49;;;;;;;10.80;6.70;;;;;;;19.61;64.14;100644.70;1725916;80;21493;-68
2021/08/04 00:33:16;;;;;;;10.95;6.08;;;;;;;19.60;64.12;100651.55;1730668;80;21012;-68
2021/08/04 00:35:42;;;;;;;9.98;6.62;;;;;;;19.58;64.23;100648.23;1733937;81;21647;-68
2021/08/04 00:38:13;;;;;;;10.43;6.70;;;;;;;19.55;64.41;100649.91;1681986;83;21868;-68
2021/08/04 00:40:41;;;;;;;9.70;6.53;;;;;;;19.52;64.51;100652.45;1706256;83;21054;-68
2021/08/04 00:43:08;;;;;;;11.15;6.95;;;;;;;19.49;64.39;100650.94;1710438;83;21043;-72
2021/08/04 00:45:35;;;;;;;9.30;6.30;;;;;;;19.43;64.32;100650.81;1704437;83;21599;-69
2021/08/04 00:48:02;;;;;;;10.13;6.97;;;;;;;19.37;64.45;100651.02;1672576;82;21071;-69
2021/08/04 00:50:29;;;;;;;12.50;7.33;;;;;;;19.30;64.72;100647.38;1709810;82;21500;-68
2021/08/04 00:52:56;;;;;;;8.68;6.25;;;;;;;19.28;64.94;100653.38;1702912;82;21497;-68
2021/08/04 00:55:24;;;;;;;10.25;7.15;;;;;;;19.29;64.97;100649.20;1692658;83;21107;-67
2021/08/04 00:57:51;;;;;;;9.38;6.42;;;;;;;19.31;64.91;100651.70;1701488;82;21040;-71
2021/08/04 01:00:17;;;;;;;9.40;6.72;;;;;;;19.30;64.92;100656.72;1696539;83;21467;-68
2021/08/04 01:02:51;;;;;;;8.48;5.67;;;;;;;19.30;65.03;100657.55;1702771;83;21551;-69
2021/08/04 01:05:28;;;;;;;8.58;5.80;;;;;;;19.30;64.87;100663.39;1769778;79;21035;-69
2021/08/04 01:08:10;;;;;;;8.23;5.33;;;;;;;19.27;64.73;100665.06;1707679;82;21078;-69
2021/08/04 01:10:42;;;;;;;9.60;6.60;;;;;;;19.20;64.51;100664.92;1705412;83;21568;-68
2021/08/04 01:13:40;;;;;;;7.83;5.70;;;;;;;19.16;64.42;100661.44;1694664;83;21047;-68
2021/08/04 01:16:12;;;;;;;9.33;6.15;;;;;;;19.10;64.49;100656.30;1682452;83;21109;-68
2021/08/04 01:18:55;;;;;;;9.13;6.10;;;;;;;19.04;64.67;100656.46;1692851;83;21079;-72
2021/08/04 01:22:05;;;;;;;7.95;5.30;;;;;;;19.05;64.82;100655.47;1690600;82;21110;-68
2021/08/04 01:25:02;;;;;;;10.32;5.97;;;;;;;19.08;64.84;100655.13;1689339;83;21577;-68
2021/08/04 01:27:28;;;;;;;9.28;6.20;;;;;;;19.11;64.86;100657.46;1692112;82;20991;-68
2021/08/04 01:29:55;;;;;;;7.83;5.70;;;;;;;19.11;64.81;100656.12;1698551;83;21082;-72
2021/08/04 01:32:21;;;;;;;13.83;6.40;;;;;;;19.08;64.75;100646.28;1677861;83;21681;-72
2021/08/04 01:34:49;;;;;;;9.18;6.05;;;;;;;19.05;64.74;100647.98;1697736;82;21104;-69
2021/08/04 01:37:15;;;;;;;9.15;6.37;;;;;;;19.01;64.83;100653.31;1701096;82;21130;-67
2021/08/04 01:39:42;;;;;;;8.80;6.25;;;;;;;18.96;64.72;100651.15;1699639;83;21065;-68
2021/08/04 01:42:09;;;;;;;8.93;5.83;;;;;;;18.90;64.63;100654.52;1672800;83;21160;-70
2021/08/04 01:44:35;;;;;;;10.00;7.22;;;;;;;18.84;64.65;100656.02;1674919;83;21059;-68
2021/08/04 01:47:02;;;;;;;13.43;6.45;;;;;;;18.81;64.72;100646.16;1634779;83;21016;-68
2021/08/04 01:49:29;;;;;;;10.48;5.80;;;;;;;18.83;64.70;100650.37;1690253;83;21050;-69
2021/08/04 01:51:56;;;;;;;9.23;6.67;;;;;;;18.86;64.62;100649.19;1689948;82;21068;-70
2021/08/04 01:54:24;;;;;;;10.25;6.83;;;;;;;18.86;64.60;100651.84;1672894;84;21042;-71
2021/08/04 01:56:50;;;;;;;11.43;7.45;;;;;;;18.85;64.82;100651.02;1693413;82;21547;-70
2021/08/04 01:59:21;;;;;;;10.98;8.15;;;;;;;18.86;64.93;100651.84;1680106;83;21029;-68
2021/08/04 02:01:49;;;;;;;9.03;7.05;;;;;;;18.84;65.06;100652.02;1689565;84;21056;-68
2021/08/04 02:04:16;;;;;;;9.98;7.25;;;;;;;18.83;64.92;100650.84;1698559;82;21051;-69
2021/08/04 02:06:57;;;;;;;11.08;7.40;;;;;;;18.80;64.77;100652.52;1691093;83;21147;-68
2021/08/04 02:09:29;;;;;;;11.75;6.10;;;;;;;18.73;64.80;100655.85;1716142;82;21214;-71
2021/08/04 02:12:09;;;;;;;9.20;5.95;;;;;;;18.72;64.81;100653.35;1692979;82;21056;-69
2021/08/04 02:14:59;;;;;;;10.60;5.85;;;;;;;18.74;64.74;100658.86;1692495;81;21087;-70
2021/08/04 02:17:43;;;;;;;9.93;5.30;;;;;;;18.76;64.69;100657.33;1729005;81;21031;-69
2021/08/04 02:20:38;;;;;;;10.20;6.53;;;;;;;18.74;64.81;100658.86;1729701;81;21220;-68
2021/08/04 02:23:12;;;;;;;8.18;5.80;;;;;;;18.71;64.99;100661.01;1734650;81;21075;-69
2021/08/04 02:25:52;;;;;;;9.78;6.53;;;;;;;18.68;64.93;100661.38;1727493;81;21617;-69
2021/08/04 02:28:22;;;;;;;10.30;7.00;;;;;;;18.62;64.60;100660.70;1707983;83;21089;-69
2021/08/04 02:30:49;;;;;;;12.80;7.25;;;;;;;18.56;64.47;100659.55;1697696;82;21046;-69
2021/08/04 02:33:16;;;;;;;11.90;7.45;;;;;;;18.53;64.60;100654.55;1743363;80;21135;-70
2021/08/04 02:35:42;;;;;;;10.13;6.50;;;;;;;18.48;64.73;100665.71;1741940;80;21114;-68
2021/08/04 02:38:09;;;;;;;10.03;6.42;;;;;;;18.46;64.72;100665.53;1730062;80;21030;-68
2021/08/04 02:40:35;;;;;;;8.53;5.90;;;;;;;18.48;64.84;100661.71;1742003;80;21066;-69
2021/08/04 02:43:02;;;;;;;10.10;6.47;;;;;;;18.50;64.93;100660.22;1762535;80;22191;-71
2021/08/04 02:45:28;;;;;;;9.95;6.75;;;;;;;18.55;64.92;100665.88;1769584;80;21541;-68
2021/08/04 02:47:54;;;;;;;9.68;6.10;;;;;;;18.54;64.97;100665.05;1762724;79;21376;-68
2021/08/04 02:50:20;;;;;;;9.00;5.90;;;;;;;18.55;64.76;100671.20;1705678;79;21481;-68
2021/08/04 02:52:47;;;;;;;8.60;5.58;;;;;;;18.51;64.58;100676.55;1766506;80;21047;-69
2021/08/04 02:55:13;;;;;;;8.03;5.58;;;;;;;18.46;64.69;100673.52;1734187;80;21548;-73
2021/08/04 02:57:40;;;;;;;8.68;5.87;;;;;;;18.38;64.78;100677.04;1770019;79;21117;-69
2021/08/04 03:00:07;;;;;;;13.20;6.03;;;;;;;18.32;64.79;100681.19;1770032;79;21481;-69
2021/08/04 03:02:34;;;;;;;8.20;5.15;;;;;;;18.29;64.68;100682.88;1777716;79;21521;-68
2021/08/04 03:05:02;;;;;;;9.18;5.75;;;;;;;18.36;64.49;100689.20;1769931;79;21585;-69
2021/08/04 03:07:30;;;;;;;7.67;5.67;;;;;;;18.42;64.31;100686.86;1772826;80;21105;-69
2021/08/04 03:09:57;;;;;;;8.25;5.50;;;;;;;18.46;64.10;100688.18;1770413;80;21506;-69
2021/08/04 03:12:26;;;;;;;7.53;5.33;;;;;;;18.47;64.12;100685.86;1763312;80;21030;-68
2021/08/04 03:14:52;;;;;;;7.22;5.17;;;;;;;18.47;63.44;100687.19;1746605;80;21003;-68
2021/08/04 03:17:19;;;;;;;8.13;4.67;;;;;;;18.44;62.88;100694.18;1747714;80;21082;-68
2021/08/04 03:19:47;;;;;;;9.40;6.33;;;;;;;18.40;62.76;100692.86;1766121;79;21019;-70
2021/08/04 03:22:13;;;;;;;7.83;5.37;;;;;;;18.35;62.85;100691.52;1768120;79;21583;-70
2021/08/04 03:24:39;;;;;;;8.10;5.20;;;;;;;18.36;62.98;100693.70;1762568;80;21510;-69
2021/08/04 03:27:06;;;;;;;7.28;4.72;;;;;;;18.38;63.05;100695.19;1742034;80;22423;-68
2021/08/04 03:29:32;;;;;;;7.55;4.67;;;;;;;18.40;62.86;100697.68;1771365;80;21043;-69
2021/08/04 03:31:59;;;;;;;7.97;5.67;;;;;;;18.43;62.59;100701.86;1777031;80;21157;-70
2021/08/04 03:34:26;;;;;;;8.30;5.08;;;;;;;18.47;62.30;100700.00;1767387;80;22137;-69
2021/08/04 03:36:52;;;;;;;7.22;5.25;;;;;;;18.54;62.20;100694.84;1768071;80;20979;-69
2021/08/04 03:39:20;;;;;;;7.92;5.65;;;;;;;18.61;62.91;100697.19;1748408;80;21053;-70
2021/08/04 03:41:46;;;;;;;10.23;5.72;;;;;;;18.65;63.26;100699.84;1739246;80;21079;-72
2021/08/04 03:44:13;;;;;;;8.43;5.78;;;;;;;18.66;63.51;100706.84;1768855;80;21079;-71
2021/08/04 03:46:39;;;;;;;10.50;5.58;;;;;;;18.68;63.74;100704.84;1742324;80;21072;-69
2021/08/04 03:49:08;;;;;;;8.23;5.62;;;;;;;18.68;63.83;100708.02;1737074;80;21043;-72
2021/08/04 03:51:36;;;;;;;7.87;5.22;;;;;;;18.70;63.88;100711.34;1769305;79;21043;-69
2021/08/04 03:54:02;;;;;;;7.40;5.05;;;;;;;18.68;64.13;100710.17;1769483;80;21062;-68
2021/08/04 03:56:29;;;;;;;11.50;5.95;;;;;;;18.70;64.19;100714.00;1768301;79;21071;-69
2021/08/04 03:58:56;;;;;;;8.00;5.42;;;;;;;18.74;64.07;100720.65;1769821;79;21145;-73
2021/08/04 04:01:22;;;;;;;9.00;5.42;;;;;;;18.82;63.88;100717.98;1769408;79;21057;-71
2021/08/04 04:03:49;;;;;;;7.85;5.75;;;;;;;18.88;63.85;100722.67;1761671;79;21099;-69
2021/08/04 04:06:16;;;;;;;7.97;5.00;;;;;;;18.93;63.81;100721.66;1746750;80;21659;-70
2021/08/04 04:08:44;;;;;;;10.60;5.60;;;;;;;18.97;63.76;100720.83;1766557;79;21081;-69
2021/08/04 04:11:11;;;;;;;9.00;5.92;;;;;;;19.02;63.46;100719.81;1766984;80;21134;-69
2021/08/04 04:13:37;;;;;;;10.80;5.65;;;;;;;19.09;63.38;100719.45;1742529;80;21344;-69
2021/08/04 04:16:04;;;;;;;7.25;5.08;;;;;;;19.15;62.80;100717.95;1762134;80;21049;-70
2021/08/04 04:18:32;;;;;;;10.13;5.83;;;;;;;19.21;62.33;100721.25;1765746;79;21034;-69
2021/08/04 04:20:59;;;;;;;7.37;5.08;;;;;;;19.23;62.21;100724.61;1767988;80;21350;-68
2021/08/04 04:23:26;;;;;;;9.10;4.95;;;;;;;19.27;62.18;100726.42;1768712;80;21754;-68
2021/08/04 04:25:52;;;;;;;9.10;5.40;;;;;;;19.33;62.02;100724.89;1762769;79;21058;-68
2021/08/04 04:28:18;;;;;;;9.38;5.65;;;;;;;19.40;61.87;100728.53;1732271;80;21067;-67
2021/08/04 04:30:45;;;;;;;7.17;4.92;;;;;;;19.53;61.68;100728.00;1724683;80;21125;-69
2021/08/04 04:33:12;;;;;;;9.08;5.53;;;;;;;19.65;61.12;100726.59;1697048;83;21079;-69
2021/08/04 04:35:38;;;;;;;8.58;4.97;;;;;;;19.76;61.14;100733.44;1677160;83;21052;-69
2021/08/04 04:38:05;;;;;;;8.08;5.85;;;;;;;19.83;61.27;100719.20;1758890;80;21066;-70
2021/08/04 04:40:31;;;;;;;8.65;5.35;;;;;;;19.92;60.07;100719.15;1763249;80;21034;-71
2021/08/04 04:42:58;;;;;;;9.75;5.85;;;;;;;19.99;59.45;100721.47;1764164;79;21516;-70
2021/08/04 04:45:24;;;;;;;8.25;5.28;;;;;;;20.09;58.96;100722.55;1761633;80;21105;-70
2021/08/04 04:47:51;;;;;;;9.25;5.17;;;;;;;20.16;59.14;100720.86;1762571;79;21136;-72
2021/08/04 04:50:17;;;;;;;8.35;5.55;;;;;;;20.24;59.26;100734.16;1758664;79;21129;-71
2021/08/04 04:52:44;;;;;;;12.35;5.80;;;;;;;20.30;59.16;100736.61;1764609;80;21153;-69
2021/08/04 04:55:14;;;;;;;10.18;5.83;;;;;;;20.36;59.16;100742.59;1763643;80;21533;-74
2021/08/04 04:57:42;;;;;;;9.85;5.78;;;;;;;20.43;58.91;100744.88;1763123;79;21513;-71
2021/08/04 05:00:11;;;;;;;9.05;5.05;;;;;;;20.49;59.29;100748.14;1768469;79;21125;-73
2021/08/04 05:02:38;;;;;;;9.43;5.17;;;;;;;20.58;58.63;100745.75;1769579;80;21023;-72
2021/08/04 05:05:06;;;;;;;13.45;6.05;;;;;;;20.73;58.10;100750.34;1762670;79;21619;-71
2021/08/04 05:07:33;;;;;;;8.03;5.22;;;;;;;20.86;57.98;100745.19;1772989;80;21011;-72
2021/08/04 05:09:59;;;;;;;7.62;5.37;;;;;;;20.95;57.86;100745.45;1733333;80;21070;-71
2021/08/04 05:12:25;;;;;;;13.62;5.97;;;;;;;21.07;57.89;100740.48;1763004;79;21477;-71
2021/08/04 05:14:52;;;;;;;8.93;5.47;;;;;;;21.20;58.31;100737.66;1765155;79;21070;-72
2021/08/04 05:17:19;;;;;;;7.12;5.33;;;;;;;21.30;57.89;100735.05;1760264;79;21517;-71
2021/08/04 05:19:46;;;;;;;7.87;5.40;;;;;;;21.41;58.12;100730.25;1763700;79;21018;-69
2021/08/04 05:22:14;;;;;;;10.08;5.83;;;;;;;21.50;58.43;100735.36;1757298;79;21618;-69
2021/08/04 05:24:42;;;;;;;9.83;5.83;;;;;;;21.55;58.87;100734.77;1764032;79;21074;-69
2021/08/04 05:27:08;;;;;;;8.30;5.30;;;;;;;21.63;59.09;100732.00;1758768;79;21074;-69
2021/08/04 05:29:34;;;;;;;8.83;5.70;;;;;;;21.76;58.77;100738.55;1757886;80;21118;-69
2021/08/04 05:32:02;;;;;;;10.65;5.15;;;;;;;21.85;59.14;100745.44;1737928;80;21026;-73
2021/08/04 05:34:28;;;;;;;10.70;5.75;;;;;;;21.93;58.46;100751.21;1760618;80;21090;-68
2021/08/04 05:36:56;;;;;;;8.80;6.17;;;;;;;21.98;58.45;100750.14;1762592;79;21027;-71
2021/08/04 05:39:23;;;;;;;9.98;5.90;;;;;;;22.03;58.79;100754.42;1763674;79;20992;-71
2021/08/04 05:41:49;;;;;;;11.50;6.70;;;;;;;22.07;58.47;100752.52;1769993;80;21109;-72
2021/08/04 05:44:15;;;;;;;8.20;5.62;;;;;;;22.10;58.44;100753.16;1761289;79;21046;-74
2021/08/04 05:46:42;;;;;;;9.78;5.55;;;;;;;22.10;58.59;100755.83;1758715;80;21037;-72
2021/08/04 05:49:08;;;;;;;8.28;5.78;;;;;;;22.11;58.94;100754.80;1760137;79;21478;-72
2021/08/04 05:51:36;;;;;;;10.10;5.78;;;;;;;22.13;59.33;100748.76;1767239;79;21019;-70
2021/08/04 05:54:03;;;;;;;8.13;5.47;;;;;;;22.17;59.29;100746.82;1731467;80;21105;-71
2021/08/04 05:56:31;;;;;;;11.25;5.55;;;;;;;22.25;58.89;100748.05;1764021;79;21114;-70
2021/08/04 05:58:58;;;;;;;9.88;5.78;;;;;;;22.37;58.45;100751.08;1763934;80;21049;-71
2021/08/04 06:01:24;;;;;;;12.43;5.28;;;;;;;22.47;56.57;100749.94;1764904;79;21180;-70
2021/08/04 06:03:51;;;;;;;12.33;4.97;;;;;;;22.53;55.15;100755.36;1760778;80;21738;-71
2021/08/04 06:06:17;;;;;;;12.53;5.10;;;;;;;22.62;54.72;100752.03;1762731;79;21054;-72
2021/08/04 06:08:43;;;;;;;9.00;5.55;;;;;;;22.66;54.58;100754.63;1767026;79;21062;-73
2021/08/04 06:11:11;;;;;;;8.70;4.87;;;;;;;22.68;54.84;100756.63;1728616;79;21054;-70
2021/08/04 06:13:37;;;;;;;7.85;4.97;;;;;;;22.70;55.08;100752.42;1732470;79;21043;-71
2021/08/04 06:16:04;;;;;;;9.65;5.47;;;;;;;22.68;55.12;100751.27;1766600;79;21109;-72
2021/08/04 06:18:33;;;;;;;12.07;5.40;;;;;;;22.68;55.83;100752.61;1765834;79;22196;-73
2021/08/04 06:21:00;;;;;;;7.42;4.58;;;;;;;22.73;56.06;100756.88;1768347;79;21569;-70
2021/08/04 06:23:26;;;;;;;7.92;4.87;;;;;;;22.78;55.98;100759.81;1767189;80;21218;-71
2021/08/04 06:25:54;;;;;;;8.88;5.05;;;;;;;22.80;55.49;100761.78;1770128;79;21023;-68
2021/08/04 06:28:21;;;;;;;6.95;4.67;;;;;;;22.80;55.15;100761.78;1747477;79;21007;-71
2021/08/04 06:30:47;;;;;;;9.10;4.62;;;;;;;22.80;55.89;100756.41;1769189;79;21046;-68
2021/08/04 06:33:15;;;;;;;7.35;3.60;;;;;;;22.85;55.51;100754.98;1745498;80;21242;-69
2021/08/04 06:35:41;;;;;;;5.65;3.77;;;;;;;22.88;54.74;100751.92;1741959;80;21093;-70
2021/08/04 06:38:08;;;;;;;7.53;3.72;;;;;;;22.90;54.31;100745.35;1771206;80;21079;-69
2021/08/04 06:40:36;;;;;;;7.22;4.17;;;;;;;22.93;54.76;100747.65;1770946;79;21077;-68
2021/08/04 06:43:03;;;;;;;6.35;3.62;;;;;;;22.98;54.12;100749.72;1770854;80;21046;-71
2021/08/04 06:45:29;;;;;;;5.90;3.98;;;;;;;23.02;54.22;100742.95;1769810;79;21098;-71
2021/08/04 06:47:57;;;;;;;7.35;4.50;;;;;;;23.05;53.53;100747.94;1742032;79;21365;-72
2021/08/04 06:50:26;;;;;;;5.65;3.47;;;;;;;23.08;54.14;100752.95;1772009;79;21910;-71
2021/08/04 06:52:53;;;;;;;6.45;3.50;;;;;;;23.12;54.04;100757.41;1770193;80;21065;-71
2021/08/04 06:55:19;;;;;;;4.80;3.20;;;;;;;23.17;52.98;100759.80;1739001;80;21100;-71
2021/08/04 06:57:46;;;;;;;6.47;3.20;;;;;;;23.24;52.51;100759.03;1732821;80;21047;-69
2021/08/04 07:00:13;;;;;;;5.95;3.58;;;;;;;23.29;51.28;100756.05;1773991;80;21513;-67
2021/08/04 07:02:40;;;;;;;6.33;3.95;;;;;;;23.31;51.73;100753.99;1769602;79;21051;-77
2021/08/04 07:05:08;;;;;;;7.55;4.03;;;;;;;23.37;52.41;100750.53;1773424;80;20993;-69
2021/08/04 07:07:34;;;;;;;6.42;3.72;;;;;;;23.45;51.50;100744.17;1766239;80;20988;-69
2021/08/04 07:10:00;;;;;;;6.92;3.65;;;;;;;23.50;51.46;100745.75;1764425;80;21050;-70
2021/08/04 07:12:27;;;;;;;6.37;3.20;;;;;;;23.55;51.48;100743.30;1774569;80;21086;-71
2021/08/04 07:14:53;;;;;;;8.40;3.77;;;;;;;23.61;50.91;100747.03;1736090;80;21027;-73
2021/08/04 07:17:20;;;;;;;4.50;2.55;;;;;;;23.70;51.71;100751.70;1774120;80;21050;-72
2021/08/04 07:19:46;;;;;;;4.50;2.45;;;;;;;23.79;50.48;100757.23;1768325;78;21628;-73
2021/08/04 07:22:12;;;;;;;4.37;2.52;;;;;;;23.88;49.09;100749.85;1770102;79;21026;-72
2021/08/04 07:24:38;;;;;;;6.90;2.42;;;;;;;23.98;48.02;100750.81;1775664;78;21033;-71
2021/08/04 07:27:05;;;;;;;4.30;2.30;;;;;;;24.07;46.50;100752.27;1772191;79;21098;-71
2021/08/04 07:29:31;;;;;;;7.47;3.02;;;;;;;24.15;46.20;100748.58;1754936;80;21082;-72
2021/08/04 07:31:58;;;;;;;6.08;1.87;;;;;;;24.19;45.24;100742.60;1771051;78;21041;-73
2021/08/04 07:34:24;;;;;;;9.93;2.40;;;;;;;24.23;44.58;100745.70;1773501;79;22206;-71
2021/08/04 07:36:52;;;;;;;3.85;1.72;;;;;;;24.30;44.65;100736.59;1771883;78;21090;-73
2021/08/04 07:39:19;;;;;;;5.47;2.25;;;;;;;24.39;44.33;100739.91;1773375;78;22226;-70
2021/08/04 07:41:45;;;;;;;4.03;1.95;;;;;;;24.46;44.30;100738.58;1775654;78;21101;-71
2021/08/04 07:44:12;;;;;;;8.18;2.50;;;;;;;24.51;44.45;100738.81;1751517;80;21041;-71
2021/08/04 07:46:38;;;;;;;7.35;2.87;;;;;;;24.55;43.88;100741.95;1774312;78;21066;-70
2021/08/04 07:49:06;;;;;;;4.55;2.05;;;;;;;24.61;44.05;100745.14;1772325;78;21062;-71
2021/08/04 07:51:33;;;;;;;4.50;1.85;;;;;;;24.69;43.64;100740.89;1776719;79;21523;-72
2021/08/04 07:54:01;;;;;;;5.62;2.27;;;;;;;24.77;43.07;100737.18;1738370;80;21050;-72
2021/08/04 07:56:27;;;;;;;7.83;4.33;;;;;;;24.83;43.62;100734.98;1768313;79;21725;-72
2021/08/04 07:58:53;;;;;;;4.50;2.35;;;;;;;24.86;43.35;100737.26;1770735;80;21062;-70
2021/08/04 08:01:20;;;;;;;5.72;2.55;;;;;;;24.87;43.12;100734.89;1768040;80;21540;-70
2021/08/04 08:03:47;;;;;;;5.03;1.87;;;;;;;24.90;42.85;100735.83;1772489;80;21126;-70
2021/08/04 08:06:13;;;;;;;3.92;1.85;;;;;;;24.93;42.43;100738.10;1744873;79;21096;-69
2021/08/04 08:08:40;;;;;;;4.15;1.90;;;;;;;24.98;41.24;100732.06;1777388;80;21011;-72
2021/08/04 08:11:07;;;;;;;4.72;2.12;;;;;;;25.02;40.40;100727.94;1771900;78;20987;-72
2021/08/04 08:13:34;;;;;;;4.10;1.87;;;;;;;25.01;40.76;100736.51;1767561;80;21050;-69
2021/08/04 08:16:00;;;;;;;4.35;1.87;;;;;;;25.04;41.31;100729.37;1753450;80;21018;-70
2021/08/04 08:18:28;;;;;;;4.25;1.60;;;;;;;25.12;40.07;100724.81;1768586;78;21517;-70
2021/08/04 08:20:56;;;;;;;4.97;2.00;;;;;;;25.16;39.23;100723.34;1777340;80;21038;-69
2021/08/04 08:23:23;;;;;;;3.60;1.40;;;;;;;25.21;39.14;100728.92;1754089;80;20967;-71
2021/08/04 08:25:49;;;;;;;3.75;1.60;;;;;;;25.27;39.49;100721.88;1773261;80;21105;-69
2021/08/04 08:28:16;;;;;;;3.75;1.60;;;;;;;25.35;39.57;100722.50;1770407;78;22140;-69
2021/08/04 08:30:42;;;;;;;4.45;2.17;;;;;;;25.42;39.14;100714.40;1773499;80;21047;-69
2021/08/04 08:33:09;;;;;;;5.75;2.10;;;;;;;25.50;40.15;100716.01;1774329;80;21058;-70
2021/08/04 08:35:35;;;;;;;6.30;2.10;;;;;;;25.57;40.20;100712.26;1773649;80;21300;-70
2021/08/04 08:38:01;;;;;;;5.78;2.37;;;;;;;25.66;40.50;100710.14;1777630;78;21077;-70
2021/08/04 08:40:28;;;;;;;9.43;2.30;;;;;;;25.73;41.01;100716.84;1777988;80;21034;-68
2021/08/04 08:42:54;;;;;;;6.05;2.45;;;;;;;25.82;41.10;100710.68;1770035;80;21051;-70
2021/08/04 08:45:21;;;;;;;5.53;1.87;;;;;;;25.90;40.91;100696.95;1771552;79;21046;-70
2021/08/04 08:47:47;;;;;;;8.03;2.75;;;;;;;25.97;39.98;100691.55;1774872;80;21489;-71
2021/08/04 08:50:14;;;;;;;4.75;2.02;;;;;;;26.00;39.91;100686.55;1711793;82;21062;-73
2021/08/04 08:52:42;;;;;;;5.53;2.35;;;;;;;26.01;40.41;100690.91;1717824;81;21584;-71
2021/08/04 08:55:11;;;;;;;5.85;2.50;;;;;;;25.97;40.45;100682.11;1690492;82;21165;-69
2021/08/04 08:57:37;;;;;;;5.35;2.10;;;;;;;25.97;39.67;100684.81;1721232;81;21062;-72
2021/08/04 09:00:06;;;;;;;5.45;2.62;;;;;;;25.95;39.69;100679.10;1717530;81;21046;-69
2021/08/04 09:02:32;;;;;;;5.85;2.30;;;;;;;25.99;39.76;100678.17;1719586;81;21062;-70
2021/08/04 09:05:09;;;;;;;5.90;2.15;;;;;;;26.04;39.31;100673.45;1717321;82;21094;-71
2021/08/04 09:07:41;;;;;;;4.85;2.27;;;;;;;26.10;38.35;100684.19;1719520;82;22180;-74
2021/08/04 09:10:30;;;;;;;4.83;2.12;;;;;;;26.14;38.13;100682.73;1712706;82;21073;-72
2021/08/04 09:13:02;;;;;;;4.78;2.15;;;;;;;26.17;38.12;100686.02;1739870;80;21027;-71
2021/08/04 09:15:38;;;;;;;5.08;2.45;;;;;;;26.18;37.71;100679.59;1714452;81;21098;-71
2021/08/04 09:18:12;;;;;;;4.50;2.35;;;;;;;26.21;37.69;100682.67;1696258;82;22175;-71
2021/08/04 09:20:53;;;;;;;5.87;2.30;;;;;;;26.23;38.54;100675.19;1706747;82;21043;-69
2021/08/04 09:23:25;;;;;;;4.40;2.35;;;;;;;26.23;38.67;100673.02;1708758;82;21384;-68
2021/08/04 09:26:19;;;;;;;5.35;2.20;;;;;;;26.28;38.97;100667.80;1714409;82;21111;-68
2021/08/04 09:31:04;;;;;;;3.95;2.08;;;;;;;26.53;39.07;100664.23;1784770;78;23400;-68
2021/08/04 09:33:36;;;;;;;4.87;2.15;;;;;;;26.53;39.15;100667.78;1747098;80;21002;-68
2021/08/04 09:36:03;;;;;;;4.67;2.25;;;;;;;26.62;39.23;100671.02;1748033;80;21777;-71
2021/08/04 09:38:30;;;;;;;4.42;1.77;;;;;;;26.67;38.07;100670.67;1747933;80;20943;-70
2021/08/04 09:41:16;;;;;;;5.80;2.08;;;;;;;26.72;38.54;100666.50;1749106;80;21109;-67
2021/08/04 09:43:51;;;;;;;4.35;1.90;;;;;;;26.75;39.17;100670.08;1743485;80;21052;-71
2021/08/04 09:46:22;;;;;;;5.05;2.20;;;;;;;26.80;38.71;100662.98;1716539;81;22310;-67
2021/08/04 09:48:49;;;;;;;4.45;1.77;;;;;;;26.86;38.22;100660.75;1714149;81;21153;-71
2021/08/04 09:51:17;;;;;;;4.05;2.15;;;;;;;26.94;38.82;100656.91;1712372;81;21430;-70
2021/08/04 09:53:49;;;;;;;6.87;2.80;;;;;;;27.04;38.27;100653.69;1714425;81;21121;-71
2021/08/04 09:56:20;;;;;;;5.80;2.05;;;;;;;27.12;37.87;100650.69;1687099;82;21049;-71
2021/08/04 09:58:51;;;;;;;4.35;2.02;;;;;;;27.27;38.73;100654.86;1716339;81;21045;-70
2021/08/04 10:01:25;;;;;;;4.55;2.02;;;;;;;27.44;38.91;100647.83;1711437;82;22289;-72
2021/08/04 10:04:10;;;;;;;8.60;2.30;;;;;;;27.66;39.27;100652.73;1706161;82;21066;-70
2021/08/04 10:06:37;;;;;;;;;;;;;;;27.82;37.95;100650.70;1708664;82;21600;-70
2021/08/04 10:09:06;;;;;;;4.20;2.30;;;;;;;27.97;37.11;100652.51;1708745;82;20141;-71
2021/08/04 10:11:33;;;;;;;4.45;1.92;;;;;;;28.02;36.68;100645.56;1708062;82;21094;-69
2021/08/04 10:13:59;;;;;;;4.12;2.08;;;;;;;28.15;37.12;100645.35;1706904;82;21126;-69
2021/08/04 10:16:34;;;;;;;5.87;2.72;;;;;;;28.28;36.98;100639.72;1707839;82;21098;-69
2021/08/04 10:19:02;;;;;;;4.80;2.22;;;;;;;28.40;36.85;100643.78;1708747;82;21134;-68
2021/08/04 10:21:28;;;;;;;4.20;2.17;;;;;;;28.50;36.54;100633.73;1703992;82;21122;-67
2021/08/04 10:23:55;;;;;;;5.53;2.55;;;;;;;28.55;36.04;100632.49;1703345;82;21082;-69
2021/08/04 10:26:22;;;;;;;5.87;2.20;;;;;;;28.61;36.40;100634.27;1704422;82;22040;-67
2021/08/04 10:28:52;;;;;;;7.25;2.37;;;;;;;28.67;34.85;100636.03;1701209;83;21066;-68
2021/08/04 10:31:18;;;;;;;4.20;1.98;;;;;;;28.71;35.33;100637.73;1675272;84;21132;-67
2021/08/04 10:33:44;;;;;;;5.65;2.50;;;;;;;28.76;35.25;100630.26;1675223;83;21513;-71
2021/08/04 10:36:12;;;;;;;6.00;2.65;;;;;;;28.79;35.33;100631.14;1679718;83;21073;-68
2021/08/04 10:38:49;;;;;;;13.83;2.70;;;;;;;28.81;34.53;100629.02;1680108;84;21119;-69
2021/08/04 10:41:23;;;;;;;8.13;2.72;;;;;;;28.88;34.40;100628.34;1675401;83;21062;-69
2021/08/04 10:43:58;;;;;;;11.75;3.05;;;;;;;29.01;34.68;100626.73;1712230;81;21059;-69
2021/08/04 10:46:35;;;;;;;4.78;2.62;;;;;;;29.14;34.67;100627.53;1712682;82;21488;-69
2021/08/04 10:49:10;;;;;;;6.00;2.95;;;;;;;29.22;33.79;100629.91;1697133;82;21541;-71
2021/08/04 10:51:43;;;;;;;4.85;2.47;;;;;;;29.30;33.99;100628.68;1722345;82;22360;-71
2021/08/04 10:54:16;;;;;;;5.50;2.90;;;;;;;29.35;34.43;100627.42;1696445;81;21042;-69
2021/08/04 10:56:48;;;;;;;5.50;2.80;;;;;;;29.39;34.84;100617.22;1710518;82;21613;-73
2021/08/04 10:59:28;;;;;;;5.25;2.45;;;;;;;29.44;34.63;100617.85;1711644;81;21004;-68
2021/08/04 11:02:07;;;;;;;4.75;2.20;;;;;;;29.51;33.39;100616.34;1720692;81;21079;-69
2021/08/04 11:04:45;;;;;;;7.65;2.92;;;;;;;29.50;33.86;100620.11;1715582;81;21626;-69
2021/08/04 11:07:22;;;;;;;5.50;2.37;;;;;;;29.40;33.34;100625.65;1719094;82;21121;-68
2021/08/04 11:09:56;;;;;;;5.65;2.35;;;;;;;29.30;33.80;100625.97;1715324;81;21122;-71
2021/08/04 11:12:40;;;;;;;5.22;2.77;;;;;;;29.24;34.44;100623.70;1713686;81;21098;-69
2021/08/04 11:15:21;;;;;;;8.23;2.67;;;;;;;29.22;34.72;100624.48;1709716;81;21110;-70
2021/08/04 11:18:07;;;;;;;7.05;2.70;;;;;;;29.16;34.59;100618.09;1711851;81;21879;-72
2021/08/04 11:20:39;;;;;;;10.45;3.08;;;;;;;29.12;33.94;100615.58;1714931;81;21589;-68
2021/08/04 11:23:08;;;;;;;6.30;2.70;;;;;;;29.09;34.32;100620.94;1718956;82;21040;-69
2021/08/04 11:25:41;;;;;;;5.47;2.67;;;;;;;29.11;34.59;100611.76;1683537;83;21097;-69
2021/08/04 11:28:16;;;;;;;5.58;2.80;;;;;;;29.10;34.88;100614.98;1673938;84;21083;-69
2021/08/04 11:30:45;;;;;;;;;;;;;;;29.11;34.87;100617.17;1689475;83;21124;-68
2021/08/04 11:33:25;;;;;;;4.50;2.80;;;;;;;29.06;35.05;100613.28;1693074;83;20166;-68
2021/08/04 11:36:11;;;;;;;7.53;2.58;;;;;;;29.00;35.70;100611.55;1700856;82;21053;-70